sensor_id;sensor_type;location;lat;lon;timestamp;P1;durP1;ratioP1;P2;durP2;ratioP2
71236;SDS011;58984;51.960;5.582;2024-02-23T00:01:31;2.33;;;1.33;;
71236;SDS011;58984;51.960;5.582;2024-02-23T00:03:57;2.55;;;1.73;;
71236;SDS011;58984;51.960;5.582;2024-02-23T00:06:23;2.25;;;1.42;;
71236;SDS011;58984;51.960;5.582;2024-02-23T00:08:52;5.45;;;2.00;;
71236;SDS011;58984;51.960;5.582;2024-02-23T00:11:21;5.53;;;2.50;;
71236;SDS011;58984;51.960;5.582;2024-02-23T00:13:47;3.55;;;1.60;;
71236;SDS011;58984;51.960;5.582;2024-02-23T00:16:12;2.17;;;1.40;;
71236;SDS011;58984;51.960;5.582;2024-02-23T00:18:38;2.67;;;1.77;;
71236;SDS011;58984;51.960;5.582;2024-02-23T00:21:04;4.70;;;1.70;;
71236;SDS011;58984;51.960;5.582;2024-02-23T00:23:29;5.10;;;2.25;;
71236;SDS011;58984;51.960;5.582;2024-02-23T00:25:55;6.00;;;1.90;;
71236;SDS011;58984;51.960;5.582;2024-02-23T00:28:21;9.75;;;2.20;;
71236;SDS011;58984;51.960;5.582;2024-02-23T00:30:46;4.32;;;2.38;;
71236;SDS011;58984;51.960;5.582;2024-02-23T00:33:12;4.13;;;1.80;;
71236;SDS011;58984;51.960;5.582;2024-02-23T00:35:38;6.88;;;1.95;;
71236;SDS011;58984;51.960;5.582;2024-02-23T00:38:04;4.57;;;1.98;;
71236;SDS011;58984;51.960;5.582;2024-02-23T00:40:29;2.88;;;1.77;;
71236;SDS011;58984;51.960;5.582;2024-02-23T00:42:55;3.15;;;1.95;;
71236;SDS011;58984;51.960;5.582;2024-02-23T00:45:21;4.22;;;1.75;;
71236;SDS011;58984;51.960;5.582;2024-02-23T00:47:47;3.17;;;1.80;;
71236;SDS011;58984;51.960;5.582;2024-02-23T00:50:13;3.70;;;1.85;;
71236;SDS011;58984;51.960;5.582;2024-02-23T00:52:39;2.65;;;2.03;;
71236;SDS011;58984;51.960;5.582;2024-02-23T00:55:06;2.50;;;1.67;;
71236;SDS011;58984;51.960;5.582;2024-02-23T00:57:33;2.40;;;1.52;;
71236;SDS011;58984;51.960;5.582;2024-02-23T01:00:00;3.00;;;1.50;;
71236;SDS011;58984;51.960;5.582;2024-02-23T01:02:28;3.72;;;1.90;;
71236;SDS011;58984;51.960;5.582;2024-02-23T01:04:54;2.67;;;1.60;;
71236;SDS011;58984;51.960;5.582;2024-02-23T01:07:22;2.28;;;1.75;;
71236;SDS011;58984;51.960;5.582;2024-02-23T01:09:48;5.18;;;2.20;;
71236;SDS011;58984;51.960;5.582;2024-02-23T01:12:13;4.43;;;2.20;;
71236;SDS011;58984;51.960;5.582;2024-02-23T01:14:39;6.53;;;2.80;;
71236;SDS011;58984;51.960;5.582;2024-02-23T01:17:05;4.78;;;3.05;;
71236;SDS011;58984;51.960;5.582;2024-02-23T01:19:30;7.45;;;3.42;;
71236;SDS011;58984;51.960;5.582;2024-02-23T01:21:56;5.22;;;3.20;;
71236;SDS011;58984;51.960;5.582;2024-02-23T01:24:27;9.55;;;3.50;;
71236;SDS011;58984;51.960;5.582;2024-02-23T01:26:54;6.05;;;3.83;;
71236;SDS011;58984;51.960;5.582;2024-02-23T01:29:20;13.68;;;3.70;;
71236;SDS011;58984;51.960;5.582;2024-02-23T01:31:47;11.43;;;3.75;;
71236;SDS011;58984;51.960;5.582;2024-02-23T01:34:13;9.07;;;4.00;;
71236;SDS011;58984;51.960;5.582;2024-02-23T01:36:39;9.32;;;3.85;;
71236;SDS011;58984;51.960;5.582;2024-02-23T01:39:05;8.70;;;4.00;;
71236;SDS011;58984;51.960;5.582;2024-02-23T01:41:30;10.63;;;4.07;;
71236;SDS011;58984;51.960;5.582;2024-02-23T01:43:57;14.52;;;4.55;;
71236;SDS011;58984;51.960;5.582;2024-02-23T01:46:22;5.63;;;3.85;;
71236;SDS011;58984;51.960;5.582;2024-02-23T01:48:48;5.75;;;3.53;;
71236;SDS011;58984;51.960;5.582;2024-02-23T01:51:14;7.65;;;4.20;;
71236;SDS011;58984;51.960;5.582;2024-02-23T01:53:40;6.50;;;3.65;;
71236;SDS011;58984;51.960;5.582;2024-02-23T01:56:05;5.80;;;3.45;;
71236;SDS011;58984;51.960;5.582;2024-02-23T01:58:31;6.40;;;3.60;;
71236;SDS011;58984;51.960;5.582;2024-02-23T02:01:00;5.05;;;3.25;;
71236;SDS011;58984;51.960;5.582;2024-02-23T02:03:26;7.00;;;3.08;;
71236;SDS011;58984;51.960;5.582;2024-02-23T02:05:52;10.23;;;3.30;;
71236;SDS011;58984;51.960;5.582;2024-02-23T02:08:20;6.97;;;3.13;;
71236;SDS011;58984;51.960;5.582;2024-02-23T02:10:45;4.85;;;3.05;;
71236;SDS011;58984;51.960;5.582;2024-02-23T02:13:12;12.07;;;3.03;;
71236;SDS011;58984;51.960;5.582;2024-02-23T02:15:38;6.13;;;2.90;;
71236;SDS011;58984;51.960;5.582;2024-02-23T02:18:04;10.02;;;2.92;;
71236;SDS011;58984;51.960;5.582;2024-02-23T02:20:32;7.80;;;2.78;;
71236;SDS011;58984;51.960;5.582;2024-02-23T02:22:58;7.07;;;2.20;;
71236;SDS011;58984;51.960;5.582;2024-02-23T02:25:24;8.95;;;2.85;;
71236;SDS011;58984;51.960;5.582;2024-02-23T02:27:49;2.95;;;2.50;;
71236;SDS011;58984;51.960;5.582;2024-02-23T02:30:16;6.30;;;2.65;;
71236;SDS011;58984;51.960;5.582;2024-02-23T02:32:41;5.85;;;2.35;;
71236;SDS011;58984;51.960;5.582;2024-02-23T02:35:07;5.95;;;2.35;;
71236;SDS011;58984;51.960;5.582;2024-02-23T02:37:35;4.55;;;2.05;;
71236;SDS011;58984;51.960;5.582;2024-02-23T02:40:01;7.15;;;2.53;;
71236;SDS011;58984;51.960;5.582;2024-02-23T02:42:28;11.50;;;2.20;;
71236;SDS011;58984;51.960;5.582;2024-02-23T02:44:54;4.72;;;2.35;;
71236;SDS011;58984;51.960;5.582;2024-02-23T02:47:19;7.22;;;2.30;;
71236;SDS011;58984;51.960;5.582;2024-02-23T02:49:45;5.75;;;2.17;;
71236;SDS011;58984;51.960;5.582;2024-02-23T02:52:10;8.82;;;3.15;;
71236;SDS011;58984;51.960;5.582;2024-02-23T02:54:36;5.00;;;1.98;;
71236;SDS011;58984;51.960;5.582;2024-02-23T02:57:02;5.53;;;2.35;;
71236;SDS011;58984;51.960;5.582;2024-02-23T02:59:27;4.05;;;2.10;;
71236;SDS011;58984;51.960;5.582;2024-02-23T03:01:53;8.13;;;2.10;;
71236;SDS011;58984;51.960;5.582;2024-02-23T03:04:19;12.73;;;2.58;;
71236;SDS011;58984;51.960;5.582;2024-02-23T03:06:44;4.82;;;2.50;;
71236;SDS011;58984;51.960;5.582;2024-02-23T03:09:10;3.90;;;2.45;;
71236;SDS011;58984;51.960;5.582;2024-02-23T03:11:36;5.65;;;2.40;;
71236;SDS011;58984;51.960;5.582;2024-02-23T03:14:02;3.78;;;2.35;;
71236;SDS011;58984;51.960;5.582;2024-02-23T03:16:28;4.00;;;2.35;;
71236;SDS011;58984;51.960;5.582;2024-02-23T03:18:56;6.18;;;1.98;;
71236;SDS011;58984;51.960;5.582;2024-02-23T03:21:22;10.13;;;2.35;;
71236;SDS011;58984;51.960;5.582;2024-02-23T03:23:47;3.70;;;1.90;;
71236;SDS011;58984;51.960;5.582;2024-02-23T03:26:13;3.60;;;2.13;;
71236;SDS011;58984;51.960;5.582;2024-02-23T03:28:42;5.38;;;2.00;;
71236;SDS011;58984;51.960;5.582;2024-02-23T03:31:07;5.28;;;2.10;;
71236;SDS011;58984;51.960;5.582;2024-02-23T03:33:33;6.30;;;2.53;;
71236;SDS011;58984;51.960;5.582;2024-02-23T03:35:59;3.20;;;1.90;;
71236;SDS011;58984;51.960;5.582;2024-02-23T03:38:24;5.15;;;2.67;;
71236;SDS011;58984;51.960;5.582;2024-02-23T03:40:50;6.28;;;2.97;;
71236;SDS011;58984;51.960;5.582;2024-02-23T03:43:16;5.68;;;2.65;;
71236;SDS011;58984;51.960;5.582;2024-02-23T03:45:41;5.28;;;2.20;;
71236;SDS011;58984;51.960;5.582;2024-02-23T03:48:07;7.47;;;2.70;;
71236;SDS011;58984;51.960;5.582;2024-02-23T03:50:33;4.90;;;2.50;;
71236;SDS011;58984;51.960;5.582;2024-02-23T03:52:58;7.70;;;2.60;;
71236;SDS011;58984;51.960;5.582;2024-02-23T03:55:24;6.90;;;3.15;;
71236;SDS011;58984;51.960;5.582;2024-02-23T03:57:50;3.70;;;2.63;;
71236;SDS011;58984;51.960;5.582;2024-02-23T04:00:15;6.60;;;2.90;;
71236;SDS011;58984;51.960;5.582;2024-02-23T04:02:42;6.18;;;2.95;;
71236;SDS011;58984;51.960;5.582;2024-02-23T04:05:07;5.88;;;2.72;;
71236;SDS011;58984;51.960;5.582;2024-02-23T04:07:33;3.40;;;2.35;;
71236;SDS011;58984;51.960;5.582;2024-02-23T04:09:59;5.53;;;2.60;;
71236;SDS011;58984;51.960;5.582;2024-02-23T04:12:24;5.68;;;2.53;;
71236;SDS011;58984;51.960;5.582;2024-02-23T04:14:50;6.05;;;2.55;;
71236;SDS011;58984;51.960;5.582;2024-02-23T04:17:16;4.93;;;2.58;;
71236;SDS011;58984;51.960;5.582;2024-02-23T04:19:42;5.35;;;2.75;;
71236;SDS011;58984;51.960;5.582;2024-02-23T04:22:08;4.43;;;2.50;;
71236;SDS011;58984;51.960;5.582;2024-02-23T04:24:35;5.40;;;2.60;;
71236;SDS011;58984;51.960;5.582;2024-02-23T04:27:04;6.07;;;3.00;;
71236;SDS011;58984;51.960;5.582;2024-02-23T04:29:33;6.45;;;2.88;;
71236;SDS011;58984;51.960;5.582;2024-02-23T04:31:59;3.38;;;2.60;;
71236;SDS011;58984;51.960;5.582;2024-02-23T04:34:26;6.90;;;3.38;;
71236;SDS011;58984;51.960;5.582;2024-02-23T04:36:52;4.78;;;3.03;;
71236;SDS011;58984;51.960;5.582;2024-02-23T04:39:18;5.93;;;3.10;;
71236;SDS011;58984;51.960;5.582;2024-02-23T04:41:43;6.63;;;2.97;;
71236;SDS011;58984;51.960;5.582;2024-02-23T04:44:09;7.05;;;3.17;;
71236;SDS011;58984;51.960;5.582;2024-02-23T04:46:35;6.72;;;3.13;;
71236;SDS011;58984;51.960;5.582;2024-02-23T04:49:01;8.10;;;3.35;;
71236;SDS011;58984;51.960;5.582;2024-02-23T04:51:27;6.13;;;2.72;;
71236;SDS011;58984;51.960;5.582;2024-02-23T04:53:52;9.80;;;3.22;;
71236;SDS011;58984;51.960;5.582;2024-02-23T04:56:18;7.20;;;3.03;;
71236;SDS011;58984;51.960;5.582;2024-02-23T04:58:44;8.88;;;3.25;;
71236;SDS011;58984;51.960;5.582;2024-02-23T05:01:10;6.57;;;3.33;;
71236;SDS011;58984;51.960;5.582;2024-02-23T05:03:36;7.97;;;3.42;;
71236;SDS011;58984;51.960;5.582;2024-02-23T05:06:02;9.82;;;3.35;;
71236;SDS011;58984;51.960;5.582;2024-02-23T05:08:29;11.73;;;3.35;;
71236;SDS011;58984;51.960;5.582;2024-02-23T05:10:55;8.48;;;3.15;;
71236;SDS011;58984;51.960;5.582;2024-02-23T05:13:22;8.18;;;3.80;;
71236;SDS011;58984;51.960;5.582;2024-02-23T05:15:48;5.05;;;3.20;;
71236;SDS011;58984;51.960;5.582;2024-02-23T05:18:13;7.82;;;3.28;;
71236;SDS011;58984;51.960;5.582;2024-02-23T05:20:39;7.10;;;3.40;;
71236;SDS011;58984;51.960;5.582;2024-02-23T05:23:05;6.20;;;3.20;;
71236;SDS011;58984;51.960;5.582;2024-02-23T05:25:30;7.97;;;3.10;;
71236;SDS011;58984;51.960;5.582;2024-02-23T05:27:56;9.05;;;3.53;;
71236;SDS011;58984;51.960;5.582;2024-02-23T05:30:22;8.00;;;3.20;;
71236;SDS011;58984;51.960;5.582;2024-02-23T05:32:48;6.63;;;3.20;;
71236;SDS011;58984;51.960;5.582;2024-02-23T05:35:13;6.63;;;3.00;;
71236;SDS011;58984;51.960;5.582;2024-02-23T05:37:40;7.57;;;2.97;;
71236;SDS011;58984;51.960;5.582;2024-02-23T05:40:07;12.27;;;3.72;;
71236;SDS011;58984;51.960;5.582;2024-02-23T05:42:38;8.32;;;2.88;;
71236;SDS011;58984;51.960;5.582;2024-02-23T05:45:04;3.88;;;2.70;;
71236;SDS011;58984;51.960;5.582;2024-02-23T05:47:33;6.68;;;2.95;;
71236;SDS011;58984;51.960;5.582;2024-02-23T05:50:03;6.40;;;2.90;;
71236;SDS011;58984;51.960;5.582;2024-02-23T05:52:32;5.38;;;3.17;;
71236;SDS011;58984;51.960;5.582;2024-02-23T05:54:59;6.43;;;3.58;;
71236;SDS011;58984;51.960;5.582;2024-02-23T05:57:25;5.95;;;2.70;;
71236;SDS011;58984;51.960;5.582;2024-02-23T05:59:52;5.18;;;2.92;;
71236;SDS011;58984;51.960;5.582;2024-02-23T06:02:18;8.10;;;2.53;;
71236;SDS011;58984;51.960;5.582;2024-02-23T06:04:43;4.72;;;2.70;;
71236;SDS011;58984;51.960;5.582;2024-02-23T06:07:10;9.88;;;2.65;;
71236;SDS011;58984;51.960;5.582;2024-02-23T06:09:36;5.82;;;2.80;;
71236;SDS011;58984;51.960;5.582;2024-02-23T06:12:02;6.07;;;2.50;;
71236;SDS011;58984;51.960;5.582;2024-02-23T06:14:27;5.40;;;2.63;;
71236;SDS011;58984;51.960;5.582;2024-02-23T06:16:53;6.05;;;2.97;;
71236;SDS011;58984;51.960;5.582;2024-02-23T06:19:19;5.88;;;3.40;;
71236;SDS011;58984;51.960;5.582;2024-02-23T06:21:48;10.88;;;3.00;;
71236;SDS011;58984;51.960;5.582;2024-02-23T06:24:15;6.35;;;2.70;;
71236;SDS011;58984;51.960;5.582;2024-02-23T06:26:41;5.72;;;2.75;;
71236;SDS011;58984;51.960;5.582;2024-02-23T06:29:08;7.25;;;3.03;;
71236;SDS011;58984;51.960;5.582;2024-02-23T06:31:36;5.57;;;2.85;;
71236;SDS011;58984;51.960;5.582;2024-02-23T06:34:03;5.53;;;3.08;;
71236;SDS011;58984;51.960;5.582;2024-02-23T06:36:29;6.47;;;3.50;;
71236;SDS011;58984;51.960;5.582;2024-02-23T06:38:54;10.77;;;3.47;;
71236;SDS011;58984;51.960;5.582;2024-02-23T06:41:20;8.13;;;3.33;;
71236;SDS011;58984;51.960;5.582;2024-02-23T06:43:46;6.80;;;3.33;;
71236;SDS011;58984;51.960;5.582;2024-02-23T06:46:11;4.97;;;2.80;;
71236;SDS011;58984;51.960;5.582;2024-02-23T06:48:37;6.80;;;3.38;;
71236;SDS011;58984;51.960;5.582;2024-02-23T06:51:04;5.22;;;3.22;;
71236;SDS011;58984;51.960;5.582;2024-02-23T06:53:30;8.05;;;3.17;;
71236;SDS011;58984;51.960;5.582;2024-02-23T06:55:55;4.80;;;3.58;;
71236;SDS011;58984;51.960;5.582;2024-02-23T06:58:21;8.07;;;3.15;;
71236;SDS011;58984;51.960;5.582;2024-02-23T07:00:47;5.57;;;3.05;;
71236;SDS011;58984;51.960;5.582;2024-02-23T07:03:13;7.03;;;2.78;;
71236;SDS011;58984;51.960;5.582;2024-02-23T07:05:39;6.93;;;3.17;;
71236;SDS011;58984;51.960;5.582;2024-02-23T07:08:07;8.23;;;3.00;;
71236;SDS011;58984;51.960;5.582;2024-02-23T07:10:33;6.60;;;2.80;;
71236;SDS011;58984;51.960;5.582;2024-02-23T07:12:59;9.75;;;2.88;;
71236;SDS011;58984;51.960;5.582;2024-02-23T07:15:24;7.40;;;3.25;;
71236;SDS011;58984;51.960;5.582;2024-02-23T07:17:51;7.75;;;2.90;;
71236;SDS011;58984;51.960;5.582;2024-02-23T07:20:17;6.90;;;2.85;;
71236;SDS011;58984;51.960;5.582;2024-02-23T07:22:46;9.55;;;3.17;;
71236;SDS011;58984;51.960;5.582;2024-02-23T07:25:15;7.65;;;2.97;;
71236;SDS011;58984;51.960;5.582;2024-02-23T07:27:41;4.38;;;2.88;;
71236;SDS011;58984;51.960;5.582;2024-02-23T07:30:07;8.10;;;3.03;;
71236;SDS011;58984;51.960;5.582;2024-02-23T07:32:33;7.82;;;2.97;;
71236;SDS011;58984;51.960;5.582;2024-02-23T07:34:59;4.70;;;2.33;;
71236;SDS011;58984;51.960;5.582;2024-02-23T07:37:26;7.45;;;2.80;;
71236;SDS011;58984;51.960;5.582;2024-02-23T07:39:52;6.57;;;2.92;;
71236;SDS011;58984;51.960;5.582;2024-02-23T07:42:18;5.20;;;2.65;;
71236;SDS011;58984;51.960;5.582;2024-02-23T07:44:44;4.85;;;2.53;;
71236;SDS011;58984;51.960;5.582;2024-02-23T07:47:10;9.20;;;2.88;;
71236;SDS011;58984;51.960;5.582;2024-02-23T07:49:36;5.47;;;2.33;;
71236;SDS011;58984;51.960;5.582;2024-02-23T07:52:02;10.02;;;3.10;;
71236;SDS011;58984;51.960;5.582;2024-02-23T07:54:28;4.45;;;2.70;;
71236;SDS011;58984;51.960;5.582;2024-02-23T07:56:54;6.63;;;2.95;;
71236;SDS011;58984;51.960;5.582;2024-02-23T07:59:20;7.75;;;3.65;;
71236;SDS011;58984;51.960;5.582;2024-02-23T08:01:45;4.30;;;2.58;;
71236;SDS011;58984;51.960;5.582;2024-02-23T08:04:11;9.20;;;2.83;;
71236;SDS011;58984;51.960;5.582;2024-02-23T08:06:38;12.32;;;3.13;;
71236;SDS011;58984;51.960;5.582;2024-02-23T08:09:04;6.53;;;2.92;;
71236;SDS011;58984;51.960;5.582;2024-02-23T08:11:30;5.22;;;2.58;;
71236;SDS011;58984;51.960;5.582;2024-02-23T08:13:55;4.57;;;2.13;;
71236;SDS011;58984;51.960;5.582;2024-02-23T08:16:21;7.57;;;3.25;;
71236;SDS011;58984;51.960;5.582;2024-02-23T08:18:47;9.45;;;2.90;;
71236;SDS011;58984;51.960;5.582;2024-02-23T08:21:12;9.00;;;2.47;;
71236;SDS011;58984;51.960;5.582;2024-02-23T08:23:38;5.10;;;2.53;;
71236;SDS011;58984;51.960;5.582;2024-02-23T08:26:03;5.82;;;2.40;;
71236;SDS011;58984;51.960;5.582;2024-02-23T08:28:29;6.70;;;2.97;;
71236;SDS011;58984;51.960;5.582;2024-02-23T08:30:55;8.48;;;3.03;;
71236;SDS011;58984;51.960;5.582;2024-02-23T08:33:20;6.28;;;2.60;;
71236;SDS011;58984;51.960;5.582;2024-02-23T08:35:46;5.88;;;2.55;;
71236;SDS011;58984;51.960;5.582;2024-02-23T08:38:13;9.48;;;2.80;;
71236;SDS011;58984;51.960;5.582;2024-02-23T08:40:39;4.65;;;2.63;;
71236;SDS011;58984;51.960;5.582;2024-02-23T08:43:05;6.68;;;2.40;;
71236;SDS011;58984;51.960;5.582;2024-02-23T08:45:30;5.30;;;2.70;;
71236;SDS011;58984;51.960;5.582;2024-02-23T08:47:56;5.72;;;2.53;;
71236;SDS011;58984;51.960;5.582;2024-02-23T08:50:22;5.90;;;2.97;;
71236;SDS011;58984;51.960;5.582;2024-02-23T08:52:47;6.25;;;2.67;;
71236;SDS011;58984;51.960;5.582;2024-02-23T08:55:13;9.75;;;3.25;;
71236;SDS011;58984;51.960;5.582;2024-02-23T08:57:39;6.38;;;2.90;;
71236;SDS011;58984;51.960;5.582;2024-02-23T09:00:05;4.80;;;2.60;;
71236;SDS011;58984;51.960;5.582;2024-02-23T09:02:31;5.05;;;2.70;;
71236;SDS011;58984;51.960;5.582;2024-02-23T09:05:00;7.93;;;2.35;;
71236;SDS011;58984;51.960;5.582;2024-02-23T09:07:26;5.07;;;2.63;;
71236;SDS011;58984;51.960;5.582;2024-02-23T09:09:52;4.85;;;2.78;;
71236;SDS011;58984;51.960;5.582;2024-02-23T09:12:18;7.57;;;2.55;;
71236;SDS011;58984;51.960;5.582;2024-02-23T09:14:44;5.15;;;3.22;;
71236;SDS011;58984;51.960;5.582;2024-02-23T09:17:10;6.05;;;2.53;;
71236;SDS011;58984;51.960;5.582;2024-02-23T09:19:36;11.85;;;3.53;;
71236;SDS011;58984;51.960;5.582;2024-02-23T09:22:02;5.25;;;2.80;;
71236;SDS011;58984;51.960;5.582;2024-02-23T09:24:28;4.72;;;2.58;;
71236;SDS011;58984;51.960;5.582;2024-02-23T09:26:54;7.78;;;2.95;;
71236;SDS011;58984;51.960;5.582;2024-02-23T09:29:19;7.30;;;3.13;;
71236;SDS011;58984;51.960;5.582;2024-02-23T09:31:46;7.78;;;2.58;;
71236;SDS011;58984;51.960;5.582;2024-02-23T09:34:12;9.48;;;3.15;;
71236;SDS011;58984;51.960;5.582;2024-02-23T09:36:38;7.85;;;3.30;;
71236;SDS011;58984;51.960;5.582;2024-02-23T09:39:04;5.85;;;3.08;;
71236;SDS011;58984;51.960;5.582;2024-02-23T09:41:30;6.20;;;2.75;;
71236;SDS011;58984;51.960;5.582;2024-02-23T09:43:59;9.35;;;2.85;;
71236;SDS011;58984;51.960;5.582;2024-02-23T09:46:26;9.20;;;3.63;;
71236;SDS011;58984;51.960;5.582;2024-02-23T09:48:52;7.85;;;2.97;;
71236;SDS011;58984;51.960;5.582;2024-02-23T09:51:20;9.65;;;3.35;;
71236;SDS011;58984;51.960;5.582;2024-02-23T09:53:48;8.70;;;2.88;;
71236;SDS011;58984;51.960;5.582;2024-02-23T09:56:16;5.25;;;2.88;;
71236;SDS011;58984;51.960;5.582;2024-02-23T09:58:43;9.02;;;3.30;;
71236;SDS011;58984;51.960;5.582;2024-02-23T10:01:12;6.85;;;2.80;;
71236;SDS011;58984;51.960;5.582;2024-02-23T10:03:39;7.53;;;2.40;;
71236;SDS011;58984;51.960;5.582;2024-02-23T10:06:05;5.13;;;2.47;;
71236;SDS011;58984;51.960;5.582;2024-02-23T10:08:30;4.03;;;2.30;;
71236;SDS011;58984;51.960;5.582;2024-02-23T10:10:56;8.10;;;3.08;;
71236;SDS011;58984;51.960;5.582;2024-02-23T10:13:22;6.85;;;2.55;;
71236;SDS011;58984;51.960;5.582;2024-02-23T10:15:51;5.88;;;2.47;;
71236;SDS011;58984;51.960;5.582;2024-02-23T10:18:18;4.25;;;2.70;;
71236;SDS011;58984;51.960;5.582;2024-02-23T10:20:44;4.57;;;2.65;;
71236;SDS011;58984;51.960;5.582;2024-02-23T10:23:11;9.23;;;3.10;;
71236;SDS011;58984;51.960;5.582;2024-02-23T10:25:37;5.45;;;2.97;;
71236;SDS011;58984;51.960;5.582;2024-02-23T10:28:03;7.55;;;2.80;;
71236;SDS011;58984;51.960;5.582;2024-02-23T10:30:32;4.47;;;2.40;;
71236;SDS011;58984;51.960;5.582;2024-02-23T10:32:58;11.07;;;2.38;;
71236;SDS011;58984;51.960;5.582;2024-02-23T10:35:24;5.63;;;2.20;;
71236;SDS011;58984;51.960;5.582;2024-02-23T10:37:52;7.45;;;1.92;;
71236;SDS011;58984;51.960;5.582;2024-02-23T10:40:20;4.70;;;2.58;;
71236;SDS011;58984;51.960;5.582;2024-02-23T10:42:47;6.30;;;2.70;;
71236;SDS011;58984;51.960;5.582;2024-02-23T10:45:19;4.28;;;2.67;;
71236;SDS011;58984;51.960;5.582;2024-02-23T10:47:46;7.28;;;2.88;;
71236;SDS011;58984;51.960;5.582;2024-02-23T10:50:13;7.63;;;3.40;;
71236;SDS011;58984;51.960;5.582;2024-02-23T10:52:43;5.65;;;2.72;;
71236;SDS011;58984;51.960;5.582;2024-02-23T10:55:09;5.53;;;2.70;;
71236;SDS011;58984;51.960;5.582;2024-02-23T10:57:35;5.38;;;2.60;;
71236;SDS011;58984;51.960;5.582;2024-02-23T11:00:02;12.75;;;3.65;;
71236;SDS011;58984;51.960;5.582;2024-02-23T11:02:34;8.02;;;4.38;;
71236;SDS011;58984;51.960;5.582;2024-02-23T11:05:14;6.43;;;3.85;;
71236;SDS011;58984;51.960;5.582;2024-02-23T11:07:41;5.28;;;3.75;;
71236;SDS011;58984;51.960;5.582;2024-02-23T11:10:07;4.25;;;3.47;;
71236;SDS011;58984;51.960;5.582;2024-02-23T11:12:34;7.63;;;4.07;;
71236;SDS011;58984;51.960;5.582;2024-02-23T11:15:00;6.85;;;3.47;;
71236;SDS011;58984;51.960;5.582;2024-02-23T11:17:27;5.70;;;2.90;;
71236;SDS011;58984;51.960;5.582;2024-02-23T11:19:57;9.52;;;3.15;;
71236;SDS011;58984;51.960;5.582;2024-02-23T11:22:24;12.43;;;4.28;;
71236;SDS011;58984;51.960;5.582;2024-02-23T11:24:51;4.93;;;3.15;;
71236;SDS011;58984;51.960;5.582;2024-02-23T11:27:16;6.18;;;3.58;;
71236;SDS011;58984;51.960;5.582;2024-02-23T11:29:43;4.32;;;3.30;;
71236;SDS011;58984;51.960;5.582;2024-02-23T11:32:14;5.55;;;3.17;;
71236;SDS011;58984;51.960;5.582;2024-02-23T11:34:41;9.48;;;3.53;;
71236;SDS011;58984;51.960;5.582;2024-02-23T11:37:07;9.07;;;2.88;;
71236;SDS011;58984;51.960;5.582;2024-02-23T11:39:38;8.93;;;3.75;;
71236;SDS011;58984;51.960;5.582;2024-02-23T11:42:07;6.38;;;3.20;;
71236;SDS011;58984;51.960;5.582;2024-02-23T11:44:34;5.65;;;3.10;;
71236;SDS011;58984;51.960;5.582;2024-02-23T11:46:59;6.78;;;3.42;;
71236;SDS011;58984;51.960;5.582;2024-02-23T11:49:28;7.38;;;3.38;;
71236;SDS011;58984;51.960;5.582;2024-02-23T11:51:54;4.28;;;3.22;;
71236;SDS011;58984;51.960;5.582;2024-02-23T11:54:21;5.93;;;3.38;;
71236;SDS011;58984;51.960;5.582;2024-02-23T11:56:48;7.93;;;3.20;;
71236;SDS011;58984;51.960;5.582;2024-02-23T11:59:14;7.88;;;3.33;;
71236;SDS011;58984;51.960;5.582;2024-02-23T12:01:41;6.63;;;3.20;;
71236;SDS011;58984;51.960;5.582;2024-02-23T12:04:07;5.78;;;3.17;;
71236;SDS011;58984;51.960;5.582;2024-02-23T12:06:33;5.53;;;2.70;;
71236;SDS011;58984;51.960;5.582;2024-02-23T12:08:59;6.80;;;3.45;;
71236;SDS011;58984;51.960;5.582;2024-02-23T12:11:26;5.15;;;3.63;;
71236;SDS011;58984;51.960;5.582;2024-02-23T12:13:52;5.10;;;2.95;;
71236;SDS011;58984;51.960;5.582;2024-02-23T12:16:18;4.70;;;3.25;;
71236;SDS011;58984;51.960;5.582;2024-02-23T12:18:52;5.47;;;3.05;;
71236;SDS011;58984;51.960;5.582;2024-02-23T12:21:21;4.45;;;3.00;;
71236;SDS011;58984;51.960;5.582;2024-02-23T12:23:49;4.85;;;2.80;;
71236;SDS011;58984;51.960;5.582;2024-02-23T12:26:18;5.85;;;2.65;;
71236;SDS011;58984;51.960;5.582;2024-02-23T12:28:44;6.05;;;3.00;;
71236;SDS011;58984;51.960;5.582;2024-02-23T12:31:11;6.97;;;2.88;;
71236;SDS011;58984;51.960;5.582;2024-02-23T12:33:37;6.07;;;2.75;;
71236;SDS011;58984;51.960;5.582;2024-02-23T12:36:10;3.33;;;2.78;;
71236;SDS011;58984;51.960;5.582;2024-02-23T12:38:35;4.22;;;2.85;;
71236;SDS011;58984;51.960;5.582;2024-02-23T12:41:01;5.10;;;2.75;;
71236;SDS011;58984;51.960;5.582;2024-02-23T12:43:28;3.88;;;2.63;;
71236;SDS011;58984;51.960;5.582;2024-02-23T12:45:53;5.50;;;2.88;;
71236;SDS011;58984;51.960;5.582;2024-02-23T12:48:20;5.63;;;2.83;;
71236;SDS011;58984;51.960;5.582;2024-02-23T12:50:47;6.28;;;2.90;;
71236;SDS011;58984;51.960;5.582;2024-02-23T12:55:58;11.07;;;3.42;;
71236;SDS011;58984;51.960;5.582;2024-02-23T12:58:24;6.00;;;2.50;;
71236;SDS011;58984;51.960;5.582;2024-02-23T13:00:49;5.45;;;2.50;;
71236;SDS011;58984;51.960;5.582;2024-02-23T13:03:15;5.18;;;2.72;;
71236;SDS011;58984;51.960;5.582;2024-02-23T13:05:41;4.05;;;2.17;;
71236;SDS011;58984;51.960;5.582;2024-02-23T13:08:07;2.58;;;2.15;;
71236;SDS011;58984;51.960;5.582;2024-02-23T13:10:32;5.68;;;2.30;;
71236;SDS011;58984;51.960;5.582;2024-02-23T13:13:00;7.25;;;2.60;;
71236;SDS011;58984;51.960;5.582;2024-02-23T13:15:25;5.13;;;2.30;;
71236;SDS011;58984;51.960;5.582;2024-02-23T13:17:51;5.95;;;2.60;;
71236;SDS011;58984;51.960;5.582;2024-02-23T13:20:17;4.20;;;2.72;;
71236;SDS011;58984;51.960;5.582;2024-02-23T13:22:42;3.67;;;2.10;;
71236;SDS011;58984;51.960;5.582;2024-02-23T13:25:08;3.35;;;2.45;;
71236;SDS011;58984;51.960;5.582;2024-02-23T13:27:33;10.13;;;2.97;;
71236;SDS011;58984;51.960;5.582;2024-02-23T13:29:59;5.53;;;2.70;;
71236;SDS011;58984;51.960;5.582;2024-02-23T13:32:25;4.00;;;2.65;;
71236;SDS011;58984;51.960;5.582;2024-02-23T13:34:50;5.22;;;2.83;;
71236;SDS011;58984;51.960;5.582;2024-02-23T13:37:17;6.45;;;2.70;;
71236;SDS011;58984;51.960;5.582;2024-02-23T13:39:43;5.75;;;2.92;;
71236;SDS011;58984;51.960;5.582;2024-02-23T13:42:09;2.83;;;2.60;;
71236;SDS011;58984;51.960;5.582;2024-02-23T13:44:35;5.55;;;2.72;;
71236;SDS011;58984;51.960;5.582;2024-02-23T13:47:01;6.43;;;2.90;;
71236;SDS011;58984;51.960;5.582;2024-02-23T13:49:27;6.60;;;3.05;;
71236;SDS011;58984;51.960;5.582;2024-02-23T13:51:53;5.78;;;3.05;;
71236;SDS011;58984;51.960;5.582;2024-02-23T13:54:19;6.10;;;2.88;;
71236;SDS011;58984;51.960;5.582;2024-02-23T13:56:45;5.38;;;2.38;;
71236;SDS011;58984;51.960;5.582;2024-02-23T13:59:10;4.82;;;2.42;;
71236;SDS011;58984;51.960;5.582;2024-02-23T14:01:36;4.65;;;2.50;;
71236;SDS011;58984;51.960;5.582;2024-02-23T14:04:06;4.55;;;2.13;;
71236;SDS011;58984;51.960;5.582;2024-02-23T14:06:32;4.97;;;2.13;;
71236;SDS011;58984;51.960;5.582;2024-02-23T14:08:58;3.55;;;2.40;;
71236;SDS011;58984;51.960;5.582;2024-02-23T14:11:24;5.20;;;2.80;;
71236;SDS011;58984;51.960;5.582;2024-02-23T14:13:50;3.03;;;2.40;;
71236;SDS011;58984;51.960;5.582;2024-02-23T14:16:16;8.82;;;2.63;;
71236;SDS011;58984;51.960;5.582;2024-02-23T14:18:42;4.25;;;2.47;;
71236;SDS011;58984;51.960;5.582;2024-02-23T14:21:09;5.15;;;2.30;;
71236;SDS011;58984;51.960;5.582;2024-02-23T14:23:35;4.80;;;2.00;;
71236;SDS011;58984;51.960;5.582;2024-02-23T14:26:04;4.50;;;2.38;;
71236;SDS011;58984;51.960;5.582;2024-02-23T14:28:35;4.77;;;2.40;;
71236;SDS011;58984;51.960;5.582;2024-02-23T14:31:04;5.35;;;2.40;;
71236;SDS011;58984;51.960;5.582;2024-02-23T14:33:35;3.33;;;2.15;;
71236;SDS011;58984;51.960;5.582;2024-02-23T14:36:11;6.40;;;2.60;;
71236;SDS011;58984;51.960;5.582;2024-02-23T14:38:37;2.47;;;2.10;;
71236;SDS011;58984;51.960;5.582;2024-02-23T14:41:12;7.10;;;2.67;;
71236;SDS011;58984;51.960;5.582;2024-02-23T14:43:37;6.53;;;2.45;;
71236;SDS011;58984;51.960;5.582;2024-02-23T14:46:13;4.05;;;2.30;;